PWSweather.com
Personal Weather Stations
Station Observations
PHMDWX
Perry Hall, MD 21236

Perry Hall, MD 21236

Lat: 39.418318, Lon: -76.490039

Elevation: 305

Station Type: Davis Vantage Pro

www.phmdwx.net

High Low Average
Temperature 82.0°F27.8°C 62.3°F16.8°C 71.0°F21.7°C
Dew Point 70.3°F21.3°C 61.7°F16.5°C 67.0°F19.4°C
Winds 0.1 mph 0.2 kmh Calm Calm Calm ECalm E
Wind Gusts 1.0 mph1.6 kmh -- --
Humidity 99% 67% 88%
Pressure 30.12 in1020.0 mb 30.03 in1016.9 mb -
Precipitation 0.00 in0.0 mm - -
Hour Temp Dew Point Humidity Winds Wind Gusts Pressure Precip Precip Rate Daily Precip Total
12:00 AM 64.5°F18.1°C 63.9°F17.7°C 98% Calm Calm -- 30.08 in1018.6 mb - 0.00 in0.0 mm 0.00 in0.0 mm
12:30 AM 64.0°F17.8°C 63.1°F17.3°C 97% Calm Calm -- 30.07 in1018.3 mb - 0.00 in0.0 mm 0.00 in0.0 mm
01:00 AM 63.7°F17.6°C 63.1°F17.3°C 98% Calm Calm -- 30.07 in1018.3 mb - 0.00 in0.0 mm 0.00 in0.0 mm
01:30 AM 63.4°F17.4°C 62.8°F17.1°C 98% Calm Calm -- 30.06 in1017.9 mb - 0.00 in0.0 mm 0.00 in0.0 mm
02:00 AM 62.9°F17.2°C 62.3°F16.8°C 98% Calm Calm -- 30.06 in1017.9 mb - 0.00 in0.0 mm 0.00 in0.0 mm
02:30 AM 62.7°F17.1°C 62.1°F16.7°C 98% Calm Calm -- 30.06 in1017.9 mb - 0.00 in0.0 mm 0.00 in0.0 mm
03:00 AM 62.4°F16.9°C 61.8°F16.6°C 98% Calm Calm -- 30.06 in1017.9 mb - 0.00 in0.0 mm 0.00 in0.0 mm
03:30 AM 62.3°F16.8°C 61.7°F16.5°C 98% Calm Calm -- 30.07 in1018.3 mb - 0.00 in0.0 mm 0.00 in0.0 mm
04:00 AM 62.9°F17.2°C 62.6°F17.0°C 99% Calm Calm -- 30.08 in1018.6 mb - 0.00 in0.0 mm 0.00 in0.0 mm
04:30 AM 65.0°F18.3°C 64.7°F18.2°C 99% Calm Calm -- 30.09 in1019.0 mb - 0.00 in0.0 mm 0.00 in0.0 mm
05:00 AM 66.0°F18.9°C 65.7°F18.7°C 99% Calm Calm -- 30.09 in1019.0 mb - 0.00 in0.0 mm 0.00 in0.0 mm
05:30 AM 66.1°F18.9°C 65.8°F18.8°C 99% Calm Calm -- 30.10 in1019.3 mb - 0.00 in0.0 mm 0.00 in0.0 mm
06:00 AM 66.6°F19.2°C 66.3°F19.1°C 99% Calm Calm -- 30.11 in1019.6 mb - 0.00 in0.0 mm 0.00 in0.0 mm
06:30 AM 66.8°F19.3°C 66.6°F19.2°C 99% Calm Calm -- 30.11 in1019.6 mb - 0.00 in0.0 mm 0.00 in0.0 mm
07:00 AM 67.8°F19.9°C 67.5°F19.7°C 99% Calm Calm -- 30.12 in1020.0 mb - 0.00 in0.0 mm 0.00 in0.0 mm
07:30 AM 68.7°F20.4°C 68.4°F20.2°C 99% Calm Calm -- 30.12 in1020.0 mb - 0.00 in0.0 mm 0.00 in0.0 mm
08:00 AM 69.3°F20.7°C 69.0°F20.6°C 99% Calm Calm -- 30.12 in1020.0 mb - 0.00 in0.0 mm 0.00 in0.0 mm
08:30 AM 70.3°F21.3°C 69.7°F20.9°C 98% Calm Calm -- 30.12 in1020.0 mb - 0.00 in0.0 mm 0.00 in0.0 mm
09:00 AM 71.5°F21.9°C 69.1°F20.6°C 92% Calm Calm -- 30.12 in1020.0 mb - 0.00 in0.0 mm 0.00 in0.0 mm
09:30 AM 73.3°F22.9°C 68.8°F20.4°C 86% Calm Calm -- 30.11 in1019.6 mb - 0.00 in0.0 mm 0.00 in0.0 mm
10:00 AM 73.7°F23.2°C 68.6°F20.3°C 84% Calm Calm -- 30.11 in1019.6 mb - 0.00 in0.0 mm 0.00 in0.0 mm
10:30 AM 75.4°F24.1°C 69.2°F20.7°C 81% Calm Calm -- 30.11 in1019.6 mb - 0.00 in0.0 mm 0.00 in0.0 mm
11:00 AM 76.0°F24.4°C 69.4°F20.8°C 80% Calm Calm -- 30.10 in1019.3 mb - 0.00 in0.0 mm 0.00 in0.0 mm
11:30 AM 78.5°F25.8°C 69.5°F20.8°C 74% Calm Calm -- 30.09 in1019.0 mb - 0.00 in0.0 mm 0.00 in0.0 mm
12:00 PM 79.8°F26.6°C 69.6°F20.9°C 71% Calm Calm -- 30.09 in1019.0 mb - 0.00 in0.0 mm 0.00 in0.0 mm
12:30 PM 80.5°F26.9°C 69.4°F20.8°C 69% Calm Calm -- 30.08 in1018.6 mb - 0.00 in0.0 mm 0.00 in0.0 mm
01:00 PM 82.0°F27.8°C 69.9°F21.1°C 67% Calm Calm -- 30.07 in1018.3 mb - 0.00 in0.0 mm 0.00 in0.0 mm
01:30 PM 80.3°F26.8°C 69.2°F20.7°C 69% Calm Calm -- 30.06 in1017.9 mb - 0.00 in0.0 mm 0.00 in0.0 mm
02:00 PM 80.6°F27.0°C 68.6°F20.3°C 67% Calm Calm -- 30.06 in1017.9 mb - 0.00 in0.0 mm 0.00 in0.0 mm
02:30 PM 81.8°F27.7°C 69.8°F21.0°C 67% Calm Calm -- 30.05 in1017.6 mb - 0.00 in0.0 mm 0.00 in0.0 mm
03:00 PM 78.6°F25.9°C 69.6°F20.9°C 74% Calm Calm -- 30.05 in1017.6 mb - 0.00 in0.0 mm 0.00 in0.0 mm
03:30 PM 80.1°F26.7°C 70.3°F21.3°C 72% Calm Calm -- 30.03 in1016.9 mb - 0.00 in0.0 mm 0.00 in0.0 mm
04:00 PM 79.9°F26.6°C 69.2°F20.7°C 70% Calm Calm -- 30.03 in1016.9 mb - 0.00 in0.0 mm 0.00 in0.0 mm
04:30 PM 79.4°F26.3°C 69.2°F20.7°C 71% Calm Calm 1.0 mph1.6 kmh 30.03 in1016.9 mb - 0.00 in0.0 mm 0.00 in0.0 mm
05:00 PM 78.1°F25.6°C 68.7°F20.4°C 73% 0.1 mph ENE0.2 kmh ENE -- 30.03 in1016.9 mb - 0.00 in0.0 mm 0.00 in0.0 mm
05:30 PM 76.3°F24.6°C 68.5°F20.3°C 77% Calm Calm -- 30.03 in1016.9 mb - 0.00 in0.0 mm 0.00 in0.0 mm
06:00 PM 74.9°F23.8°C 68.3°F20.2°C 80% Calm Calm -- 30.03 in1016.9 mb - 0.00 in0.0 mm 0.00 in0.0 mm
06:30 PM 73.4°F23.0°C 68.6°F20.3°C 85% Calm Calm -- 30.03 in1016.9 mb - 0.00 in0.0 mm 0.00 in0.0 mm
07:00 PM 71.5°F21.9°C 67.8°F19.9°C 88% Calm Calm -- 30.04 in1017.3 mb - 0.00 in0.0 mm 0.00 in0.0 mm
07:30 PM 70.4°F21.3°C 68.0°F20.0°C 92% Calm Calm -- 30.05 in1017.6 mb - 0.00 in0.0 mm 0.00 in0.0 mm
08:00 PM 69.6°F20.9°C 67.8°F19.9°C 94% Calm Calm -- 30.05 in1017.6 mb - 0.00 in0.0 mm 0.00 in0.0 mm
08:30 PM 68.8°F20.4°C 67.3°F19.6°C 95% Calm Calm -- 30.05 in1017.6 mb - 0.00 in0.0 mm 0.00 in0.0 mm
09:00 PM 67.8°F19.9°C 66.3°F19.1°C 95% Calm Calm -- 30.05 in1017.6 mb - 0.00 in0.0 mm 0.00 in0.0 mm
09:30 PM 67.3°F19.6°C 66.1°F18.9°C 96% Calm Calm -- 30.06 in1017.9 mb - 0.00 in0.0 mm 0.00 in0.0 mm
10:00 PM 66.8°F19.3°C 65.6°F18.7°C 96% Calm Calm -- 30.05 in1017.6 mb - 0.00 in0.0 mm 0.00 in0.0 mm
10:30 PM 66.3°F19.1°C 65.4°F18.6°C 97% Calm Calm -- 30.06 in1017.9 mb - 0.00 in0.0 mm 0.00 in0.0 mm
11:00 PM 65.8°F18.8°C 64.9°F18.3°C 97% Calm Calm -- 30.06 in1017.9 mb - 0.00 in0.0 mm 0.00 in0.0 mm
11:30 PM 65.5°F18.6°C 64.6°F18.1°C 97% Calm Calm 1.0 mph1.6 kmh 30.05 in1017.6 mb - 0.00 in0.0 mm 0.00 in0.0 mm